Dayton, Iowa
Current Conditions -  °F | °C
As of 1:15 PM on Saturday 25 Oct 2014 (Local Time) from KEBS Reporting Station
Clear Clear  
Wind Chill: 66°   Ceiling: Unl
Heat Index: 66°   Visibility: 10mi
Dew Point: 36°   Wind: 15mph
Humidity: 32%   Direction: 340°NNW
Pressure: 30.09"   Gusts: NA
Location:  42.26°N, 94.07°W
Report Text: KEBS 251815Z AUTO 34013KT 10SM CLR 19/02 A3009 RMK AO2
Loading
Personal Weather Stations






























Interactive Weather Map
Tropical Storm Tracking
New forecast layout! Learn more

10-Day Weather Forecast

Advertisements
Track Severe Weather on mobile